Time;durP1;ratioP1;P1;durP2;ratioP2;P2;SDS_P1;SDS_P2;PMS_P1;PMS_P2;Temp;Humidity;BMP_temperature;BMP_pressure;BME280_temperature;BME280_humidity;BME280_pressure;Samples;Min_cycle;Max_cycle;Signal;HPM_P1;HPM_P2
2022/11/27 00:03:57;;;;;;;25.30;20.13;;;;;;;;;;9988743;28;20048;-63
2022/11/27 00:08:51;;;;;;;24.42;19.38;;;;;;;;;;9986563;28;20073;-63
2022/11/27 00:13:45;;;;;;;27.80;20.40;;;;;;;;;;9986206;28;20533;-63
2022/11/27 00:18:39;;;;;;;26.13;21.10;;;;;;;;;;9988418;28;20452;-63
2022/11/27 00:23:34;;;;;;;28.08;21.13;;;;;;;;;;9988833;28;20054;-62
2022/11/27 00:28:27;;;;;;;21.98;17.88;;;;;;;;;;9989984;28;20138;-63
2022/11/27 00:33:21;;;;;;;21.50;18.13;;;;;;;;;;9988791;28;20066;-63
2022/11/27 00:38:15;;;;;;;22.35;17.55;;;;;;;;;;9988904;28;20062;-63
2022/11/27 00:43:09;;;;;;;25.65;19.92;;;;;;;;;;9989721;28;20108;-63
2022/11/27 00:48:04;;;;;;;23.73;19.02;;;;;;;;;;9989656;28;20038;-63
2022/11/27 00:52:58;;;;;;;26.83;19.23;;;;;;;;;;9988426;28;20053;-63
2022/11/27 00:57:53;;;;;;;22.13;17.60;;;;;;;;;;9989203;28;20053;-63
2022/11/27 01:02:46;;;;;;;20.80;18.13;;;;;;;;;;9988854;28;20068;-63
2022/11/27 01:07:40;;;;;;;24.00;18.88;;;;;;;;;;9988510;28;20060;-63
2022/11/27 01:12:35;;;;;;;24.83;18.13;;;;;;;;;;9988292;28;20076;-62
2022/11/27 01:17:28;;;;;;;20.17;17.00;;;;;;;;;;9988036;28;20077;-62
2022/11/27 01:22:22;;;;;;;24.17;18.10;;;;;;;;;;9988572;28;20073;-62
2022/11/27 01:27:16;;;;;;;27.70;19.83;;;;;;;;;;9990973;28;20055;-62
2022/11/27 01:32:10;;;;;;;24.58;16.83;;;;;;;;;;9987862;28;20062;-62
2022/11/27 01:37:04;;;;;;;19.27;17.27;;;;;;;;;;9987518;28;20047;-62
2022/11/27 01:41:58;;;;;;;21.75;18.27;;;;;;;;;;9987598;28;20077;-63
2022/11/27 01:46:58;;;;;;;24.58;17.90;;;;;;;;;;9987501;28;20089;-63
2022/11/27 01:52:11;;;;;;;21.23;17.90;;;;;;;;;;9987378;28;20058;-62
2022/11/27 01:57:35;;;;;;;24.65;17.98;;;;;;;;;;9988338;28;20122;-63
2022/11/27 02:02:29;;;;;;;26.85;18.27;;;;;;;;;;9984088;28;20084;-62
2022/11/27 02:07:22;;;;;;;23.65;19.58;;;;;;;;;;9994798;28;20050;-62
2022/11/27 02:12:57;;;;;;;23.02;19.10;;;;;;;;;;9995169;28;20054;-63
2022/11/27 02:18:05;;;;;;;23.13;19.10;;;;;;;;;;9990176;28;20061;-63
2022/11/27 02:23:13;;;;;;;21.83;17.30;;;;;;;;;;9994775;28;20058;-62
2022/11/27 02:28:25;;;;;;;25.45;18.98;;;;;;;;;;9994134;28;20058;-62
2022/11/27 02:33:20;;;;;;;19.20;16.45;;;;;;;;;;9986249;28;20062;-62
2022/11/27 02:38:24;;;;;;;19.17;16.52;;;;;;;;;;9993952;28;20058;-62
2022/11/27 02:43:37;;;;;;;19.58;16.38;;;;;;;;;;9965725;28;20081;-62
2022/11/27 02:48:54;;;;;;;20.88;18.75;;;;;;;;;;9976271;28;20058;-62
2022/11/27 02:54:08;;;;;;;21.33;17.48;;;;;;;;;;9975727;28;20051;-62
2022/11/27 02:59:24;;;;;;;19.75;17.40;;;;;;;;;;9993421;28;20058;-62
2022/11/27 03:04:39;;;;;;;22.50;17.73;;;;;;;;;;9977279;28;20057;-63
2022/11/27 03:09:36;;;;;;;21.75;17.30;;;;;;;;;;9993118;28;20086;-62
2022/11/27 03:14:29;;;;;;;18.63;15.85;;;;;;;;;;9963979;28;20050;-62
2022/11/27 03:19:44;;;;;;;19.58;15.75;;;;;;;;;;9988840;28;20082;-62
2022/11/27 03:24:38;;;;;;;18.05;16.15;;;;;;;;;;9969499;28;20065;-62
2022/11/27 03:29:34;;;;;;;18.45;15.00;;;;;;;;;;9992093;28;20089;-62
2022/11/27 03:34:28;;;;;;;19.38;16.17;;;;;;;;;;9992008;28;20461;-62
2022/11/27 03:39:22;;;;;;;19.17;13.73;;;;;;;;;;9991953;28;20074;-62
2022/11/27 03:44:36;;;;;;;17.23;15.13;;;;;;;;;;9974193;28;20046;-62
2022/11/27 03:49:47;;;;;;;21.85;17.25;;;;;;;;;;9990907;28;20104;-62
2022/11/27 03:55:00;;;;;;;15.60;13.77;;;;;;;;;;9990865;28;20046;-62
2022/11/27 04:00:33;;;;;;;20.10;14.52;;;;;;;;;;9972366;28;20061;-63
2022/11/27 04:06:07;;;;;;;16.20;14.25;;;;;;;;;;9990766;28;20047;-62
2022/11/27 04:11:01;;;;;;;17.38;14.43;;;;;;;;;;9991691;28;20062;-62
2022/11/27 04:15:54;;;;;;;21.27;14.13;;;;;;;;;;9989772;28;20046;-63
2022/11/27 04:21:08;;;;;;;18.67;14.07;;;;;;;;;;9990202;28;20466;-62
2022/11/27 04:26:02;;;;;;;18.58;14.15;;;;;;;;;;9982016;28;20108;-63
2022/11/27 04:30:56;;;;;;;16.52;13.23;;;;;;;;;;9989436;28;20058;-62
2022/11/27 04:35:51;;;;;;;18.50;15.48;;;;;;;;;;9990150;28;20118;-62
2022/11/27 04:40:45;;;;;;;18.10;15.85;;;;;;;;;;9988970;28;20585;-62
2022/11/27 04:45:40;;;;;;;16.75;14.95;;;;;;;;;;9988873;28;20062;-62
2022/11/27 04:50:33;;;;;;;22.30;16.15;;;;;;;;;;9989157;28;20058;-62
2022/11/27 04:55:26;;;;;;;16.15;14.02;;;;;;;;;;9989014;28;20058;-62
2022/11/27 05:00:21;;;;;;;16.73;14.10;;;;;;;;;;9988667;28;20057;-62
2022/11/27 05:05:16;;;;;;;16.90;15.10;;;;;;;;;;9988480;28;20112;-62
2022/11/27 05:10:10;;;;;;;16.98;14.07;;;;;;;;;;9988183;28;20054;-62
2022/11/27 05:15:07;;;;;;;18.83;14.57;;;;;;;;;;9988332;28;20047;-62
2022/11/27 05:20:01;;;;;;;15.82;14.07;;;;;;;;;;9987971;28;20081;-62
2022/11/27 05:24:54;;;;;;;14.65;11.65;;;;;;;;;;9987738;28;20058;-62
2022/11/27 05:29:48;;;;;;;15.80;14.15;;;;;;;;;;9988067;28;20139;-62
2022/11/27 05:34:42;;;;;;;18.00;14.27;;;;;;;;;;9987845;28;20054;-62
2022/11/27 05:39:35;;;;;;;14.15;12.65;;;;;;;;;;9990833;28;20061;-62
2022/11/27 05:44:30;;;;;;;14.80;13.30;;;;;;;;;;9996559;28;20493;-63
2022/11/27 05:49:23;;;;;;;14.13;12.68;;;;;;;;;;9990771;28;20078;-62
2022/11/27 05:54:18;;;;;;;19.90;13.57;;;;;;;;;;9995040;28;20058;-62
2022/11/27 05:59:11;;;;;;;18.25;14.65;;;;;;;;;;9995535;28;20062;-62
2022/11/27 06:04:05;;;;;;;17.92;14.90;;;;;;;;;;9993827;28;20108;-63
2022/11/27 06:08:59;;;;;;;18.63;13.48;;;;;;;;;;9993193;28;20134;-63
2022/11/27 06:13:53;;;;;;;18.55;14.68;;;;;;;;;;9993205;28;20586;-63
2022/11/27 06:18:51;;;;;;;17.08;14.77;;;;;;;;;;9993195;28;20061;-64
2022/11/27 06:23:44;;;;;;;20.15;14.80;;;;;;;;;;9993011;28;20050;-64
2022/11/27 06:28:38;;;;;;;16.92;14.45;;;;;;;;;;9993584;28;20050;-63
2022/11/27 06:33:32;;;;;;;18.77;16.35;;;;;;;;;;9992303;28;20054;-64
2022/11/27 06:38:26;;;;;;;20.17;15.73;;;;;;;;;;9992967;28;20129;-64
2022/11/27 06:43:20;;;;;;;17.25;15.45;;;;;;;;;;9992583;28;20058;-63
2022/11/27 06:48:13;;;;;;;20.27;16.95;;;;;;;;;;9991810;28;20089;-64
2022/11/27 06:53:08;;;;;;;16.77;14.63;;;;;;;;;;9991491;28;20105;-64
2022/11/27 06:58:01;;;;;;;21.50;18.85;;;;;;;;;;9992055;28;20138;-63
2022/11/27 07:02:56;;;;;;;18.38;15.77;;;;;;;;;;9991520;28;20058;-64
2022/11/27 07:07:49;;;;;;;18.23;16.27;;;;;;;;;;9991927;28;20093;-63
2022/11/27 07:12:44;;;;;;;18.40;16.30;;;;;;;;;;9991751;28;20054;-63
2022/11/27 07:17:38;;;;;;;21.88;19.67;;;;;;;;;;9991069;28;20051;-64
2022/11/27 07:22:31;;;;;;;26.45;22.75;;;;;;;;;;9989674;28;20046;-64
2022/11/27 07:27:25;;;;;;;32.78;24.67;;;;;;;;;;9974466;28;20561;-64
2022/11/27 07:32:19;;;;;;;27.92;22.42;;;;;;;;;;9988952;28;20145;-63
2022/11/27 07:37:13;;;;;;;26.48;23.48;;;;;;;;;;9990700;28;20121;-64
2022/11/27 07:42:07;;;;;;;24.50;20.80;;;;;;;;;;9981940;28;20082;-63
2022/11/27 07:47:21;;;;;;;20.88;18.58;;;;;;;;;;9990056;28;20054;-63
2022/11/27 07:52:14;;;;;;;21.58;19.27;;;;;;;;;;9989947;28;20442;-63
2022/11/27 07:57:08;;;;;;;23.25;16.98;;;;;;;;;;9991439;28;20050;-63
2022/11/27 08:02:02;;;;;;;21.80;17.80;;;;;;;;;;9990417;28;20046;-64
2022/11/27 08:06:57;;;;;;;22.48;17.83;;;;;;;;;;9989795;28;20053;-63
2022/11/27 08:11:51;;;;;;;23.83;18.42;;;;;;;;;;9988137;28;20069;-62
2022/11/27 08:16:45;;;;;;;23.52;19.85;;;;;;;;;;9986143;28;20046;-63
2022/11/27 08:21:39;;;;;;;25.05;20.10;;;;;;;;;;9968059;28;20061;-64
2022/11/27 08:26:36;;;;;;;25.42;20.08;;;;;;;;;;9986360;28;20046;-64
2022/11/27 08:31:30;;;;;;;21.95;18.67;;;;;;;;;;9989515;28;20058;-63
2022/11/27 08:36:27;;;;;;;25.02;21.27;;;;;;;;;;9989661;28;20054;-63
2022/11/27 08:41:20;;;;;;;31.80;22.85;;;;;;;;;;9987747;28;20120;-63
2022/11/27 08:46:14;;;;;;;25.25;18.42;;;;;;;;;;9995696;28;20146;-62
2022/11/27 08:51:11;;;;;;;30.08;21.30;;;;;;;;;;9986255;28;20042;-65
2022/11/27 08:56:22;;;;;;;23.40;19.55;;;;;;;;;;9988255;28;20097;-64
2022/11/27 09:01:27;;;;;;;26.00;18.58;;;;;;;;;;9987759;28;20082;-62
2022/11/27 09:06:23;;;;;;;24.70;19.67;;;;;;;;;;9987939;28;20104;-63
2022/11/27 09:11:18;;;;;;;28.27;19.85;;;;;;;;;;9986537;28;20505;-64
2022/11/27 09:16:14;;;;;;;28.98;20.27;;;;;;;;;;9984500;28;20053;-67
2022/11/27 09:21:10;;;;;;;38.47;21.33;;;;;;;;;;9987410;28;20129;-66
2022/11/27 09:26:12;;;;;;;29.58;22.67;;;;;;;;;;9987112;28;20046;-66
2022/11/27 09:31:07;;;;;;;25.65;21.48;;;;;;;;;;9983805;28;20386;-66
2022/11/27 09:36:05;;;;;;;27.80;23.52;;;;;;;;;;9984302;28;20054;-66
2022/11/27 09:41:02;;;;;;;24.48;19.90;;;;;;;;;;9983805;28;20074;-66
2022/11/27 09:46:00;;;;;;;24.08;20.73;;;;;;;;;;9984427;28;20553;-66
2022/11/27 09:50:53;;;;;;;25.20;20.33;;;;;;;;;;9970198;28;20125;-66
2022/11/27 09:55:51;;;;;;;25.83;20.15;;;;;;;;;;9987985;28;20466;-66
2022/11/27 10:00:45;;;;;;;25.73;22.02;;;;;;;;;;9987888;28;20113;-66
2022/11/27 10:05:47;;;;;;;30.45;20.90;;;;;;;;;;9987035;28;20142;-66
2022/11/27 10:11:08;;;;;;;25.98;22.27;;;;;;;;;;9987577;28;20054;-66
2022/11/27 10:16:24;;;;;;;30.42;22.35;;;;;;;;;;9987732;28;20058;-66
2022/11/27 10:21:23;;;;;;;32.05;23.00;;;;;;;;;;9977825;28;20062;-66
2022/11/27 10:26:20;;;;;;;28.48;23.88;;;;;;;;;;9990971;28;20042;-66
2022/11/27 10:31:17;;;;;;;28.48;23.00;;;;;;;;;;9994440;28;20073;-66
2022/11/27 10:36:35;;;;;;;24.77;20.98;;;;;;;;;;9977943;28;20061;-66
2022/11/27 10:41:33;;;;;;;25.75;22.60;;;;;;;;;;9977016;28;20050;-66
2022/11/27 10:46:41;;;;;;;26.73;21.05;;;;;;;;;;9969481;28;20097;-66
2022/11/27 10:51:35;;;;;;;24.05;21.38;;;;;;;;;;9993758;28;20387;-66
2022/11/27 10:56:59;;;;;;;26.10;20.95;;;;;;;;;;9993470;28;20058;-66
2022/11/27 11:01:52;;;;;;;23.98;21.42;;;;;;;;;;9993106;28;20073;-66
2022/11/27 11:06:50;;;;;;;24.23;21.25;;;;;;;;;;9993372;28;20050;-66
2022/11/27 11:11:44;;;;;;;26.27;21.02;;;;;;;;;;9992299;28;20050;-66
2022/11/27 11:16:42;;;;;;;23.73;20.25;;;;;;;;;;9977822;28;20528;-66
2022/11/27 11:21:43;;;;;;;24.17;20.87;;;;;;;;;;9993016;28;20058;-66
2022/11/27 11:26:43;;;;;;;22.45;20.05;;;;;;;;;;9992491;28;20483;-65
2022/11/27 11:31:39;;;;;;;22.33;19.33;;;;;;;;;;9991774;28;20157;-65
2022/11/27 11:36:32;;;;;;;21.92;19.63;;;;;;;;;;9990105;28;20042;-67
2022/11/27 11:41:36;;;;;;;21.40;17.92;;;;;;;;;;9991017;28;20053;-65
2022/11/27 11:46:32;;;;;;;19.83;17.20;;;;;;;;;;9990218;28;20138;-65
2022/11/27 11:51:52;;;;;;;24.60;19.27;;;;;;;;;;9992465;28;20070;-64
2022/11/27 11:56:51;;;;;;;19.60;17.42;;;;;;;;;;9951603;28;20049;-65
2022/11/27 12:02:02;;;;;;;17.73;15.82;;;;;;;;;;9974168;28;20050;-65
2022/11/27 12:07:03;;;;;;;16.33;14.35;;;;;;;;;;9990060;28;20044;-65
2022/11/27 12:12:14;;;;;;;21.02;18.08;;;;;;;;;;9990371;28;20080;-65
2022/11/27 12:17:26;;;;;;;17.17;13.55;;;;;;;;;;9980956;28;20054;-66
2022/11/27 12:22:39;;;;;;;20.05;15.52;;;;;;;;;;9990924;28;20042;-66
2022/11/27 12:27:53;;;;;;;19.40;17.13;;;;;;;;;;9982234;28;20049;-66
2022/11/27 12:32:55;;;;;;;22.95;17.17;;;;;;;;;;9987770;28;20050;-65
2022/11/27 12:38:43;;;;;;;19.30;15.68;;;;;;;;;;9989317;28;20051;-66
2022/11/27 12:43:47;;;;;;;21.08;16.58;;;;;;;;;;9894432;28;20398;-66
2022/11/27 12:48:49;;;;;;;22.77;19.25;;;;;;;;;;9988856;28;20050;-66
2022/11/27 12:53:48;;;;;;;22.65;18.42;;;;;;;;;;9965700;28;20521;-65
2022/11/27 12:58:50;;;;;;;20.48;16.60;;;;;;;;;;9982821;28;20614;-65
2022/11/27 13:04:04;;;;;;;21.55;16.88;;;;;;;;;;9985654;28;20088;-65
2022/11/27 13:09:02;;;;;;;19.02;17.02;;;;;;;;;;9986255;28;20177;-65
2022/11/27 13:14:04;;;;;;;19.80;15.32;;;;;;;;;;9988949;28;20461;-65
2022/11/27 13:19:04;;;;;;;16.02;13.40;;;;;;;;;;9988580;28;20435;-65
2022/11/27 13:23:59;;;;;;;17.35;14.38;;;;;;;;;;9988345;28;20085;-65
2022/11/27 13:28:56;;;;;;;12.43;10.45;;;;;;;;;;9988572;28;20125;-65
2022/11/27 13:33:50;;;;;;;12.18;10.13;;;;;;;;;;9987669;28;20060;-65
2022/11/27 13:38:44;;;;;;;13.70;10.80;;;;;;;;;;9971338;28;20046;-65
2022/11/27 13:43:45;;;;;;;14.32;11.32;;;;;;;;;;9989189;28;20046;-65
2022/11/27 13:48:40;;;;;;;13.48;11.40;;;;;;;;;;9988066;28;20129;-64
2022/11/27 13:53:37;;;;;;;13.82;12.15;;;;;;;;;;9988091;28;20050;-65
2022/11/27 13:58:40;;;;;;;16.92;10.38;;;;;;;;;;9988269;28;20050;-65
2022/11/27 14:03:35;;;;;;;13.23;10.15;;;;;;;;;;9975570;28;20803;-65
2022/11/27 14:08:34;;;;;;;14.93;11.68;;;;;;;;;;9995204;28;20062;-65
2022/11/27 14:13:48;;;;;;;13.32;10.80;;;;;;;;;;9977967;28;20473;-65
2022/11/27 14:18:49;;;;;;;14.60;11.40;;;;;;;;;;9995491;28;20379;-65
2022/11/27 14:23:50;;;;;;;11.20;10.00;;;;;;;;;;9978112;28;20651;-65
2022/11/27 14:28:48;;;;;;;13.35;10.75;;;;;;;;;;9984376;28;20073;-65
2022/11/27 14:33:44;;;;;;;14.15;9.65;;;;;;;;;;9969392;28;20129;-65
2022/11/27 14:39:01;;;;;;;15.18;10.85;;;;;;;;;;9994471;28;20486;-65
2022/11/27 14:44:02;;;;;;;18.48;11.43;;;;;;;;;;9994098;28;20532;-65
2022/11/27 14:48:56;;;;;;;18.08;11.35;;;;;;;;;;9994213;28;20050;-65
2022/11/27 14:53:59;;;;;;;12.27;10.80;;;;;;;;;;9993217;28;20064;-65
2022/11/27 14:58:53;;;;;;;14.15;11.40;;;;;;;;;;9993867;28;20050;-65
2022/11/27 15:03:55;;;;;;;13.57;10.98;;;;;;;;;;9969965;28;20125;-65
2022/11/27 15:08:49;;;;;;;13.68;12.27;;;;;;;;;;9991593;28;20053;-66
2022/11/27 15:14:03;;;;;;;15.05;11.73;;;;;;;;;;9988065;28;20493;-66
2022/11/27 15:19:01;;;;;;;14.23;11.90;;;;;;;;;;9987659;28;20070;-65
2022/11/27 15:23:55;;;;;;;16.83;13.05;;;;;;;;;;9987722;28;20050;-66
2022/11/27 15:28:55;;;;;;;16.90;12.98;;;;;;;;;;9989682;28;20453;-65
2022/11/27 15:34:18;;;;;;;18.60;15.32;;;;;;;;;;9987998;28;20138;-65
2022/11/27 15:39:23;;;;;;;19.48;16.23;;;;;;;;;;9962796;28;20050;-65
2022/11/27 15:44:17;;;;;;;21.65;16.85;;;;;;;;;;9984540;28;20054;-65
2022/11/27 15:49:30;;;;;;;22.05;19.38;;;;;;;;;;9987858;28;20050;-65
2022/11/27 15:54:24;;;;;;;42.53;25.50;;;;;;;;;;9985306;28;20145;-64
2022/11/27 15:59:19;;;;;;;35.35;22.55;;;;;;;;;;9990747;28;20061;-65
2022/11/27 16:04:13;;;;;;;24.63;16.70;;;;;;;;;;9990200;28;20517;-64
2022/11/27 16:09:06;;;;;;;22.00;14.38;;;;;;;;;;9989338;28;20046;-65
2022/11/27 16:14:00;;;;;;;18.63;16.15;;;;;;;;;;9988912;28;20525;-65
2022/11/27 16:19:15;;;;;;;27.17;20.65;;;;;;;;;;9987923;28;20509;-65
2022/11/27 16:24:12;;;;;;;27.67;22.50;;;;;;;;;;9986424;28;20425;-64
2022/11/27 16:29:06;;;;;;;27.02;21.60;;;;;;;;;;9988485;28;20058;-65
2022/11/27 16:34:02;;;;;;;26.75;20.15;;;;;;;;;;9953224;28;20545;-67
2022/11/27 16:38:57;;;;;;;25.05;20.27;;;;;;;;;;9970733;28;20417;-65
2022/11/27 16:43:54;;;;;;;23.98;19.92;;;;;;;;;;9970021;28;20134;-65
2022/11/27 16:48:50;;;;;;;28.25;21.77;;;;;;;;;;9987996;28;20042;-66
2022/11/27 16:53:46;;;;;;;27.50;22.45;;;;;;;;;;9985160;28;20080;-66
2022/11/27 16:58:41;;;;;;;26.55;21.40;;;;;;;;;;9969523;28;20093;-65
2022/11/27 17:03:36;;;;;;;29.27;24.70;;;;;;;;;;9969623;28;20413;-65
2022/11/27 17:08:30;;;;;;;33.47;24.90;;;;;;;;;;9986374;28;20046;-65
2022/11/27 17:13:24;;;;;;;26.10;21.85;;;;;;;;;;9986857;28;20050;-65
2022/11/27 17:18:19;;;;;;;32.15;23.92;;;;;;;;;;9986343;28;20560;-66
2022/11/27 17:23:13;;;;;;;35.08;28.08;;;;;;;;;;9983768;28;20042;-66
2022/11/27 17:28:06;;;;;;;25.20;22.33;;;;;;;;;;9973073;28;20046;-67
2022/11/27 17:33:01;;;;;;;37.85;30.85;;;;;;;;;;9967297;28;20062;-67
2022/11/27 17:37:54;;;;;;;40.95;30.92;;;;;;;;;;9985826;28;20050;-67
2022/11/27 17:42:47;;;;;;;55.08;40.90;;;;;;;;;;9968822;28;20050;-67
2022/11/27 17:47:41;;;;;;;48.10;32.08;;;;;;;;;;9986818;28;20047;-67
2022/11/27 17:52:35;;;;;;;55.97;42.13;;;;;;;;;;9986322;28;20054;-67
2022/11/27 17:57:29;;;;;;;37.30;30.70;;;;;;;;;;9986515;28;20054;-66
2022/11/27 18:02:23;;;;;;;36.10;27.88;;;;;;;;;;9986141;28;20054;-65
2022/11/27 18:07:17;;;;;;;29.95;23.02;;;;;;;;;;9986385;28;20050;-67
2022/11/27 18:12:11;;;;;;;33.78;27.85;;;;;;;;;;9968590;28;20057;-66
2022/11/27 18:17:05;;;;;;;41.90;34.15;;;;;;;;;;9968860;28;20042;-66
2022/11/27 18:22:00;;;;;;;55.85;42.50;;;;;;;;;;9986267;28;20134;-65
2022/11/27 18:26:55;;;;;;;60.88;46.08;;;;;;;;;;9986679;28;20437;-67
2022/11/27 18:32:05;;;;;;;;;;;;;;;;;;9986880;28;20054;-67
2022/11/27 18:37:01;;;;;;;50.28;39.85;;;;;;;;;;9986775;28;19957;-67
2022/11/27 18:41:54;;;;;;;44.17;37.05;;;;;;;;;;9986558;28;20120;-67
2022/11/27 18:46:47;;;;;;;47.42;39.38;;;;;;;;;;9970199;28;20053;-68
2022/11/27 18:51:42;;;;;;;45.83;37.55;;;;;;;;;;9993312;28;20501;-68
2022/11/27 18:56:36;;;;;;;57.25;42.22;;;;;;;;;;9993999;28;20081;-68
2022/11/27 19:01:31;;;;;;;44.92;37.88;;;;;;;;;;9993233;28;20081;-68
2022/11/27 19:06:35;;;;;;;52.90;38.70;;;;;;;;;;9992955;28;20058;-68
2022/11/27 19:11:31;;;;;;;58.47;39.03;;;;;;;;;;9973013;28;20050;-68
2022/11/27 19:16:33;;;;;;;40.38;32.13;;;;;;;;;;9990848;28;20410;-69
2022/11/27 19:21:28;;;;;;;35.50;30.10;;;;;;;;;;9968194;28;20105;-67
2022/11/27 19:26:25;;;;;;;45.03;37.63;;;;;;;;;;9987867;28;20367;-67
2022/11/27 19:31:19;;;;;;;49.25;37.38;;;;;;;;;;9989990;28;20046;-67
2022/11/27 19:36:13;;;;;;;49.40;39.75;;;;;;;;;;9989197;28;20414;-67
2022/11/27 19:41:15;;;;;;;70.82;56.95;;;;;;;;;;9972983;28;20489;-67
2022/11/27 19:46:40;;;;;;;48.88;39.65;;;;;;;;;;9988318;28;20141;-66
2022/11/27 19:51:36;;;;;;;47.33;35.33;;;;;;;;;;9986735;28;20092;-66
2022/11/27 19:56:32;;;;;;;45.80;37.70;;;;;;;;;;9989630;28;20069;-66
2022/11/27 20:01:26;;;;;;;48.65;37.95;;;;;;;;;;9974344;28;20042;-66
2022/11/27 20:06:22;;;;;;;45.03;37.53;;;;;;;;;;9959360;28;20046;-66
2022/11/27 20:11:18;;;;;;;42.25;34.67;;;;;;;;;;9974695;28;20540;-66
2022/11/27 20:16:15;;;;;;;43.33;34.47;;;;;;;;;;9986994;28;20042;-66
2022/11/27 20:21:20;;;;;;;47.92;37.35;;;;;;;;;;9985793;28;20066;-66
2022/11/27 20:26:19;;;;;;;45.10;37.78;;;;;;;;;;9986299;28;20114;-66
2022/11/27 20:31:15;;;;;;;57.15;42.63;;;;;;;;;;9984947;28;21056;-67
2022/11/27 20:36:29;;;;;;;46.90;36.95;;;;;;;;;;9984873;28;20050;-67
2022/11/27 20:41:23;;;;;;;55.25;38.22;;;;;;;;;;9965399;28;20093;-67
2022/11/27 20:46:17;;;;;;;51.90;36.67;;;;;;;;;;9986389;28;20047;-66
2022/11/27 20:51:12;;;;;;;38.50;33.55;;;;;;;;;;9973415;28;20053;-66
2022/11/27 20:56:08;;;;;;;35.15;28.75;;;;;;;;;;9987747;28;20056;-66
2022/11/27 21:01:13;;;;;;;38.08;29.10;;;;;;;;;;9987545;28;20570;-66
2022/11/27 21:06:07;;;;;;;31.52;27.80;;;;;;;;;;9967578;28;20048;-66
2022/11/27 21:11:24;;;;;;;31.10;26.98;;;;;;;;;;9986086;28;20109;-67
2022/11/27 21:16:17;;;;;;;32.10;25.58;;;;;;;;;;9986994;28;20046;-65
2022/11/27 21:21:13;;;;;;;31.60;26.17;;;;;;;;;;9986389;28;20046;-64
2022/11/27 21:26:08;;;;;;;39.67;26.65;;;;;;;;;;9987033;28;20038;-64
2022/11/27 21:31:04;;;;;;;31.67;27.92;;;;;;;;;;9969313;28;20051;-63
2022/11/27 21:35:57;;;;;;;33.05;28.25;;;;;;;;;;9986759;28;20047;-64
2022/11/27 21:40:51;;;;;;;30.15;26.73;;;;;;;;;;9986698;28;20509;-65
2022/11/27 21:45:45;;;;;;;34.30;26.45;;;;;;;;;;9985987;28;20046;-64
2022/11/27 21:50:40;;;;;;;30.75;24.80;;;;;;;;;;9967741;28;20133;-65
2022/11/27 21:55:40;;;;;;;33.20;26.58;;;;;;;;;;9986573;28;20061;-67
2022/11/27 22:00:35;;;;;;;40.30;32.10;;;;;;;;;;9985628;28;20061;-66
2022/11/27 22:05:29;;;;;;;38.38;31.83;;;;;;;;;;9986923;28;20053;-67
2022/11/27 22:10:23;;;;;;;48.25;36.80;;;;;;;;;;9986674;28;20125;-67
2022/11/27 22:15:17;;;;;;;45.35;36.10;;;;;;;;;;9966723;28;20062;-66
2022/11/27 22:20:10;;;;;;;38.40;30.15;;;;;;;;;;9967749;28;20494;-65
2022/11/27 22:25:05;;;;;;;33.53;26.60;;;;;;;;;;9992389;28;20054;-67
2022/11/27 22:29:58;;;;;;;41.97;32.20;;;;;;;;;;9989074;28;20061;-65
2022/11/27 22:34:52;;;;;;;35.30;28.58;;;;;;;;;;9989599;28;20120;-66
2022/11/27 22:39:46;;;;;;;30.92;27.38;;;;;;;;;;9989430;28;20051;-65
2022/11/27 22:44:40;;;;;;;30.00;26.80;;;;;;;;;;9989390;28;20054;-65
2022/11/27 22:49:35;;;;;;;33.47;28.13;;;;;;;;;;9988726;28;20055;-65
2022/11/27 22:54:28;;;;;;;37.15;27.08;;;;;;;;;;9975055;28;20058;-65
2022/11/27 22:59:21;;;;;;;29.92;25.92;;;;;;;;;;9983828;28;20512;-65
2022/11/27 23:04:23;;;;;;;30.95;26.58;;;;;;;;;;9988969;28;20061;-65
2022/11/27 23:09:17;;;;;;;28.73;25.65;;;;;;;;;;9991547;28;20060;-64
2022/11/27 23:14:11;;;;;;;27.45;24.00;;;;;;;;;;9991665;28;20051;-64
2022/11/27 23:19:04;;;;;;;27.55;21.40;;;;;;;;;;9991523;28;20050;-65
2022/11/27 23:23:58;;;;;;;23.65;20.98;;;;;;;;;;9992049;28;20082;-65
2022/11/27 23:28:53;;;;;;;24.67;22.08;;;;;;;;;;9992533;28;20446;-65
2022/11/27 23:33:47;;;;;;;27.65;23.15;;;;;;;;;;9997646;28;20493;-65
2022/11/27 23:38:41;;;;;;;29.30;23.77;;;;;;;;;;9991667;28;20129;-65
2022/11/27 23:43:35;;;;;;;31.27;25.05;;;;;;;;;;9991674;28;20121;-65
2022/11/27 23:48:29;;;;;;;45.63;33.42;;;;;;;;;;9991568;28;20052;-65
2022/11/27 23:53:23;;;;;;;35.80;27.30;;;;;;;;;;9990847;28;20101;-65
2022/11/27 23:58:16;;;;;;;23.08;19.30;;;;;;;;;;9992006;28;20073;-65
